createdAt,value
2019-03-23T00:00:30.186Z,98476.89
2019-03-23T00:03:37.632Z,98476.23
2019-03-23T00:06:44.536Z,98475.95
2019-03-23T00:09:51.680Z,98475.84
2019-03-23T00:12:59.234Z,98480.45
2019-03-23T00:16:06.246Z,98474.67
2019-03-23T00:19:13.180Z,98473.43
2019-03-23T00:22:20.359Z,98473.17
2019-03-23T00:25:27.786Z,98464.73
2019-03-23T00:28:34.728Z,98461.49
2019-03-23T00:31:41.699Z,98465.02
2019-03-23T00:34:48.999Z,98458.77
2019-03-23T00:37:56.494Z,98458.47
2019-03-23T00:41:03.791Z,98464.00
2019-03-23T00:44:11.305Z,98463.91
2019-03-23T00:47:19.310Z,98473.17
2019-03-23T00:50:26.424Z,98473.88
2019-03-23T00:53:33.355Z,98473.88
2019-03-23T00:56:40.672Z,98476.67
2019-03-23T00:59:47.652Z,98467.34
2019-03-23T01:02:54.994Z,98468.86
2019-03-23T01:06:02.137Z,98469.48
2019-03-23T01:09:09.583Z,98472.18
2019-03-23T01:12:17.274Z,98470.23
2019-03-23T01:15:24.336Z,98462.49
2019-03-23T01:18:31.360Z,98452.29
2019-03-23T01:21:38.877Z,98457.78
2019-03-23T01:24:46.754Z,98456.17
2019-03-23T01:27:53.696Z,98460.52
2019-03-23T01:31:00.941Z,98454.81
2019-03-23T01:34:08.114Z,98452.53
2019-03-23T01:37:15.332Z,98449.25
2019-03-23T01:40:22.518Z,98442.69
2019-03-23T01:43:29.624Z,98436.80
2019-03-23T01:46:36.997Z,98438.08
2019-03-23T01:49:44.034Z,98440.41
2019-03-23T01:52:50.931Z,98439.65
2019-03-23T01:55:57.943Z,98437.83
2019-03-23T01:59:05.262Z,98436.13
2019-03-23T02:02:12.054Z,98438.95
2019-03-23T02:05:19.981Z,98439.73
2019-03-23T02:08:26.893Z,98440.13
2019-03-23T02:11:34.330Z,98441.80
2019-03-23T02:14:41.151Z,98439.09
2019-03-23T02:17:48.167Z,98438.97
2019-03-23T02:20:55.504Z,98434.38
2019-03-23T02:24:02.518Z,98433.47
2019-03-23T02:27:09.624Z,98425.79
2019-03-23T02:30:17.099Z,98425.20
2019-03-23T02:33:24.229Z,98428.20
2019-03-23T02:36:31.153Z,98430.73
2019-03-23T02:39:38.092Z,98432.34
2019-03-23T02:42:44.881Z,98433.39
2019-03-23T02:45:51.618Z,98437.67
2019-03-23T02:48:58.693Z,98446.03
2019-03-23T02:52:05.666Z,98438.27
2019-03-23T02:55:13.432Z,98439.66
2019-03-23T02:58:20.528Z,98437.92
2019-03-23T03:01:28.025Z,98431.09
2019-03-23T03:04:34.925Z,98435.91
2019-03-23T03:07:43.567Z,98433.01
2019-03-23T03:10:50.573Z,98435.00
2019-03-23T03:13:57.781Z,98434.92
2019-03-23T03:17:04.841Z,98436.47
2019-03-23T03:20:12.171Z,98438.39
2019-03-23T03:23:19.814Z,98444.43
2019-03-23T03:26:27.198Z,98442.30
2019-03-23T03:29:34.456Z,98435.41
2019-03-23T03:32:41.874Z,98428.89
2019-03-23T03:35:48.798Z,98425.11
2019-03-23T03:38:56.165Z,98429.66
2019-03-23T03:42:03.263Z,98428.09
2019-03-23T03:45:11.920Z,98420.99
2019-03-23T03:48:18.937Z,98421.23
2019-03-23T03:51:26.422Z,98422.61
2019-03-23T03:54:34.450Z,98424.20
2019-03-23T03:57:42.003Z,98414.84
2019-03-23T04:00:52.653Z,98415.77
2019-03-23T04:04:00.097Z,98413.54
2019-03-23T04:07:09.273Z,98417.16
2019-03-23T04:10:17.031Z,98418.75
2019-03-23T04:13:25.785Z,98422.58
2019-03-23T04:16:33.033Z,98427.29
2019-03-23T04:19:40.397Z,98418.75
2019-03-23T04:22:47.524Z,98421.59
2019-03-23T04:25:54.792Z,98429.95
2019-03-23T04:29:01.832Z,98423.97
2019-03-23T04:32:09.856Z,98419.81
2019-03-23T04:35:17.283Z,98421.70
2019-03-23T04:38:24.443Z,98422.09
2019-03-23T04:41:31.885Z,98422.89
2019-03-23T04:44:39.054Z,98424.52
2019-03-23T04:47:47.019Z,98432.92
2019-03-23T04:50:53.989Z,98431.73
2019-03-23T04:54:01.230Z,98432.07
2019-03-23T04:57:08.193Z,98427.18
2019-03-23T05:00:16.383Z,98428.78
2019-03-23T05:03:23.511Z,98424.03
2019-03-23T05:06:31.691Z,98423.20
2019-03-23T05:09:38.617Z,98415.30
2019-03-23T05:12:46.004Z,98423.44
2019-03-23T05:15:53.306Z,98422.87
2019-03-23T05:19:00.152Z,98420.05
2019-03-23T05:22:07.660Z,98420.21
2019-03-23T05:25:24.531Z,98425.01
2019-03-23T05:28:31.777Z,98421.44
2019-03-23T05:31:38.728Z,98419.45
2019-03-23T05:34:45.816Z,98429.95
2019-03-23T05:37:52.719Z,98431.64
2019-03-23T05:40:59.606Z,98431.39
2019-03-23T05:44:06.436Z,98432.61
2019-03-23T05:47:13.635Z,98431.99
2019-03-23T05:50:21.938Z,98429.81
2019-03-23T05:53:29.183Z,98432.92
2019-03-23T05:56:36.462Z,98432.23
2019-03-23T05:59:43.531Z,98431.58
2019-03-23T06:02:50.774Z,98430.33
2019-03-23T06:05:58.279Z,98431.63
2019-03-23T06:09:07.439Z,98434.10
2019-03-23T06:12:17.726Z,98441.00
2019-03-23T06:15:24.957Z,98440.01
2019-03-23T06:18:32.081Z,98441.16
2019-03-23T06:21:39.627Z,98444.53
2019-03-23T06:24:47.398Z,98435.66
2019-03-23T06:27:56.210Z,98442.18
2019-03-23T06:31:04.431Z,98437.73
2019-03-23T06:34:11.403Z,98436.20
2019-03-23T06:37:18.819Z,98444.77
2019-03-23T06:40:25.876Z,98438.75
2019-03-23T06:43:33.114Z,98453.34
2019-03-23T06:46:41.285Z,98450.27
2019-03-23T06:49:48.465Z,98454.84
2019-03-23T06:52:55.517Z,98455.61
2019-03-23T06:56:02.776Z,98451.17
2019-03-23T06:59:09.870Z,98453.69
2019-03-23T07:02:17.252Z,98448.79
2019-03-23T07:05:24.372Z,98449.98
2019-03-23T07:08:32.368Z,98454.48
2019-03-23T07:11:39.888Z,98450.55
2019-03-23T07:14:46.816Z,98446.44
2019-03-23T07:17:54.142Z,98456.36
2019-03-23T07:21:01.009Z,98447.39
2019-03-23T07:24:08.365Z,98446.08
2019-03-23T07:27:15.823Z,98444.48
2019-03-23T07:30:23.576Z,98437.55
2019-03-23T07:33:31.183Z,98436.47
2019-03-23T07:36:39.120Z,98433.17
2019-03-23T07:39:47.164Z,98428.25
2019-03-23T07:42:54.149Z,98425.50
2019-03-23T07:46:01.583Z,98423.87
2019-03-23T07:49:09.190Z,98422.02
2019-03-23T07:52:16.687Z,98420.63
2019-03-23T07:55:23.807Z,98413.48
2019-03-23T07:58:30.909Z,98402.78
2019-03-23T08:01:38.503Z,98403.53
2019-03-23T08:04:45.374Z,98397.00
2019-03-23T08:07:52.364Z,98401.34
2019-03-23T08:10:59.853Z,98399.20
2019-03-23T08:14:07.084Z,98396.86
2019-03-23T08:17:14.252Z,98396.71
2019-03-23T08:20:21.305Z,98393.48
2019-03-23T08:23:28.420Z,98386.98
2019-03-23T08:26:36.297Z,98386.54
2019-03-23T08:29:43.251Z,98385.08
2019-03-23T08:32:53.133Z,98389.28
2019-03-23T08:36:00.292Z,98383.14
2019-03-23T08:39:08.418Z,98381.52
2019-03-23T08:42:15.867Z,98379.02
2019-03-23T08:45:23.385Z,98379.16
2019-03-23T08:48:30.631Z,98376.46
2019-03-23T08:51:37.903Z,98374.42
2019-03-23T08:54:44.634Z,98374.11
2019-03-23T08:57:51.839Z,98368.27
2019-03-23T09:01:00.394Z,98364.91
2019-03-23T09:04:08.757Z,98368.91
2019-03-23T09:07:15.988Z,98365.86
2019-03-23T09:10:23.955Z,98367.16
2019-03-23T09:13:40.255Z,98369.26
2019-03-23T09:16:41.022Z,98368.13
2019-03-23T09:19:48.348Z,98369.45
2019-03-23T09:22:55.572Z,98370.84
2019-03-23T09:26:02.586Z,98365.87
2019-03-23T09:29:09.882Z,98370.04
2019-03-23T09:32:17.109Z,98361.31
2019-03-23T09:35:24.741Z,98367.36
2019-03-23T09:38:31.975Z,98376.33
2019-03-23T09:41:39.218Z,98374.16
2019-03-23T09:44:46.079Z,98372.84
2019-03-23T09:47:53.295Z,98374.98
2019-03-23T09:51:01.094Z,98374.07
2019-03-23T09:54:08.391Z,98377.44
2019-03-23T09:57:15.468Z,98376.90
2019-03-23T10:00:22.769Z,98378.88
2019-03-23T10:03:29.847Z,98375.94
2019-03-23T10:06:37.499Z,98374.61
2019-03-23T10:09:44.497Z,98376.52
2019-03-23T10:12:53.190Z,98373.47
2019-03-23T10:16:00.389Z,98376.03
2019-03-23T10:19:07.496Z,98388.73
2019-03-23T10:22:14.508Z,98395.86
2019-03-23T10:25:21.851Z,98393.52
2019-03-23T10:28:29.902Z,98398.48
2019-03-23T10:31:42.793Z,98392.82
2019-03-23T10:34:51.837Z,98397.77
2019-03-23T10:37:59.566Z,98399.14
2019-03-23T10:41:09.359Z,98392.45
2019-03-23T10:44:16.315Z,98397.35
2019-03-23T10:47:23.415Z,98393.63
2019-03-23T10:50:31.233Z,98398.46
2019-03-23T10:53:38.762Z,98391.38
2019-03-23T10:56:46.141Z,98383.13
2019-03-23T10:59:53.118Z,98388.08
2019-03-23T11:03:00.868Z,98387.71
2019-03-23T11:06:08.456Z,98391.50
2019-03-23T11:09:15.917Z,98394.97
2019-03-23T11:12:23.881Z,98385.38
2019-03-23T11:15:30.636Z,98384.67
2019-03-23T11:18:37.961Z,98383.11
2019-03-23T11:21:44.942Z,98383.63
2019-03-23T11:24:52.316Z,98384.37
2019-03-23T11:27:59.402Z,98385.07
2019-03-23T11:31:06.970Z,98387.48
2019-03-23T11:34:18.067Z,98382.52
2019-03-23T11:37:23.523Z,98382.56
2019-03-23T11:40:30.859Z,98376.92
2019-03-23T11:43:38.483Z,98374.28
2019-03-23T11:46:45.838Z,98370.84
2019-03-23T11:49:53.487Z,98366.98
2019-03-23T11:53:00.821Z,98365.28
2019-03-23T11:56:08.852Z,98358.57
2019-03-23T11:59:16.438Z,98361.69
2019-03-23T12:02:23.543Z,98367.40
2019-03-23T12:05:32.127Z,98360.02
2019-03-23T12:08:40.151Z,98357.38
2019-03-23T12:11:48.442Z,98361.64
2019-03-23T12:14:56.272Z,98363.34
2019-03-23T12:18:04.018Z,98354.02
2019-03-23T12:21:11.773Z,98355.84
2019-03-23T12:24:18.432Z,98346.73
2019-03-23T12:27:25.758Z,98349.39
2019-03-23T12:30:32.869Z,98339.33
2019-03-23T12:33:40.559Z,98345.46
2019-03-23T12:36:48.047Z,98350.86
2019-03-23T12:39:56.303Z,98356.52
2019-03-23T12:43:03.423Z,98345.88
2019-03-23T12:46:10.728Z,98347.24
2019-03-23T12:49:18.224Z,98347.74
2019-03-23T12:52:25.754Z,98347.65
2019-03-23T12:55:33.881Z,98341.55
2019-03-23T12:58:41.184Z,98347.92
2019-03-23T13:01:48.432Z,98347.84
2019-03-23T13:04:55.815Z,98345.83
2019-03-23T13:08:03.088Z,98347.33
2019-03-23T13:11:10.458Z,98345.48
2019-03-23T13:14:17.799Z,98344.00
2019-03-23T13:17:25.948Z,98348.95
2019-03-23T13:23:40.519Z,98350.91
2019-03-23T13:26:47.521Z,98340.78
2019-03-23T13:29:56.021Z,98341.23
2019-03-23T13:33:04.768Z,98339.44
2019-03-23T13:36:12.458Z,98344.40
2019-03-23T13:39:19.708Z,98338.13
2019-03-23T13:42:27.265Z,98335.92
2019-03-23T13:45:42.374Z,98334.98
2019-03-23T13:48:43.678Z,98334.69
2019-03-23T13:51:51.087Z,98333.70
2019-03-23T13:54:59.287Z,98335.41
2019-03-23T13:58:13.541Z,98324.91
2019-03-23T14:01:25.014Z,98334.58
2019-03-23T14:04:32.736Z,98339.64
2019-03-23T14:07:39.912Z,98337.46
2019-03-23T14:10:46.980Z,98338.76
2019-03-23T14:13:54.851Z,98340.48
2019-03-23T14:17:02.091Z,98341.61
2019-03-23T14:20:09.540Z,98330.61
2019-03-23T14:23:16.619Z,98332.52
2019-03-23T14:26:24.150Z,98327.63
2019-03-23T14:29:31.274Z,98329.92
2019-03-23T14:32:39.468Z,98321.94
2019-03-23T14:35:46.954Z,98329.91
2019-03-23T14:38:55.146Z,98329.88
2019-03-23T14:42:05.119Z,98332.91
2019-03-23T14:45:12.345Z,98329.18
2019-03-23T14:48:19.687Z,98330.61
2019-03-23T14:51:27.791Z,98329.13
2019-03-23T14:54:36.534Z,98324.47
2019-03-23T14:57:43.821Z,98325.05
2019-03-23T15:00:51.076Z,98324.78
2019-03-23T15:03:58.305Z,98328.33
2019-03-23T15:07:05.724Z,98342.17
2019-03-23T15:10:13.569Z,98339.20
2019-03-23T15:13:24.405Z,98346.85
2019-03-23T15:16:31.606Z,98340.95
2019-03-23T15:19:38.914Z,98346.66
2019-03-23T15:22:47.557Z,98352.01
2019-03-23T15:25:54.906Z,98354.78
2019-03-23T15:29:02.286Z,98360.52
2019-03-23T15:32:09.394Z,98370.87
2019-03-23T15:35:16.604Z,98366.50
2019-03-23T15:38:23.680Z,98367.75
2019-03-23T15:41:31.116Z,98371.20
2019-03-23T15:44:38.127Z,98386.42
2019-03-23T15:47:45.476Z,98384.81
2019-03-23T15:50:52.876Z,98387.97
2019-03-23T15:54:00.207Z,98407.86
2019-03-23T15:57:07.089Z,98404.81
2019-03-23T16:00:14.402Z,98406.73
2019-03-23T16:03:22.219Z,98410.22
2019-03-23T16:06:29.277Z,98413.87
2019-03-23T16:09:36.608Z,98419.81
2019-03-23T16:12:44.398Z,98429.58
2019-03-23T16:15:51.695Z,98437.32
2019-03-23T16:18:58.780Z,98438.32
2019-03-23T16:22:05.944Z,98451.38
2019-03-23T16:25:15.002Z,98469.79
2019-03-23T16:28:22.663Z,98471.67
2019-03-23T16:31:29.840Z,98472.08
2019-03-23T16:34:37.861Z,98472.81
2019-03-23T16:37:45.035Z,98477.73
2019-03-23T16:40:52.553Z,98479.99
2019-03-23T16:44:01.314Z,98481.49
2019-03-23T16:47:08.402Z,98487.64
2019-03-23T16:50:16.061Z,98482.23
2019-03-23T16:53:23.071Z,98482.88
2019-03-23T16:56:30.638Z,98490.14
2019-03-23T16:59:38.374Z,98486.52
2019-03-23T17:02:45.327Z,98503.77
2019-03-23T17:05:53.756Z,98500.91
2019-03-23T17:09:00.920Z,98492.40
2019-03-23T17:12:09.450Z,98494.74
2019-03-23T17:15:16.981Z,98491.87
2019-03-23T17:18:24.291Z,98497.13
2019-03-23T17:21:32.031Z,98494.88
2019-03-23T17:24:39.519Z,98505.07
2019-03-23T17:27:47.331Z,98503.19
2019-03-23T17:30:56.821Z,98515.56
2019-03-23T17:34:04.104Z,98516.88
2019-03-23T17:37:11.277Z,98525.77
2019-03-23T17:40:18.349Z,98523.42
2019-03-23T17:43:25.512Z,98529.12
2019-03-23T17:46:32.718Z,98534.42
2019-03-23T17:49:40.251Z,98542.27
2019-03-23T17:52:47.549Z,98543.12
2019-03-23T17:55:54.620Z,98545.30
2019-03-23T19:36:08.883Z,98560.72
2019-03-23T19:39:15.320Z,98552.66
2019-03-23T19:42:20.256Z,98564.77
2019-03-23T19:45:27.302Z,98567.30
2019-03-23T19:48:32.493Z,98563.00
2019-03-23T19:51:41.029Z,98567.75
2019-03-23T19:54:46.397Z,98569.59
2019-03-23T19:57:54.581Z,98566.48
2019-03-23T20:00:57.744Z,98571.16
2019-03-23T20:04:02.676Z,98564.73
2019-03-23T20:07:08.509Z,98562.22
2019-03-23T20:10:14.492Z,98568.06
2019-03-23T20:13:19.857Z,98572.21
2019-03-23T20:16:25.463Z,98546.89
2019-03-23T20:19:30.902Z,98546.89
2019-03-23T20:22:35.691Z,98555.89
2019-03-23T20:25:40.067Z,98555.89
2019-03-23T20:28:45.726Z,98575.19
2019-03-23T20:31:50.302Z,98568.05
2019-03-23T20:34:55.668Z,98563.69
2019-03-23T20:38:00.212Z,98568.22
2019-03-23T20:41:06.779Z,98565.18
2019-03-23T20:44:11.510Z,98562.81
2019-03-23T20:47:19.428Z,98568.16
2019-03-23T20:50:24.616Z,98556.68
2019-03-23T20:53:29.482Z,98557.58
2019-03-23T20:56:35.717Z,98552.51
2019-03-23T20:59:40.614Z,98552.63
2019-03-23T21:02:45.518Z,98553.20
2019-03-23T21:05:52.979Z,98550.95
2019-03-23T21:08:58.418Z,98552.34
2019-03-23T21:12:04.133Z,98552.83
2019-03-23T21:15:08.890Z,98548.17
2019-03-23T21:18:13.885Z,98536.03
2019-03-23T21:21:20.908Z,98548.58
2019-03-23T21:24:26.297Z,98553.47
2019-03-23T21:27:32.160Z,98553.47
2019-03-23T21:30:37.350Z,98551.71
2019-03-23T21:33:44.342Z,98541.69
2019-03-23T21:36:49.521Z,98540.61
2019-03-23T21:39:54.425Z,98537.73
2019-03-23T21:42:59.309Z,98540.53
2019-03-23T21:46:04.281Z,98537.95
2019-03-23T21:49:09.392Z,98539.34
2019-03-23T21:52:14.292Z,98533.05
2019-03-23T21:55:19.353Z,98536.06
2019-03-23T22:01:45.392Z,98537.30
2019-03-23T22:04:50.613Z,98534.00
2019-03-23T22:07:55.393Z,98530.65
2019-03-23T22:11:00.323Z,98535.92
2019-03-23T22:14:06.060Z,98534.66
2019-03-23T22:17:11.226Z,98533.07
2019-03-23T22:20:16.478Z,98532.47
2019-03-23T22:23:23.498Z,98534.02
2019-03-23T22:26:30.205Z,98533.84
2019-03-23T22:29:35.403Z,98529.13
2019-03-23T22:32:40.312Z,98528.95
2019-03-23T22:35:45.418Z,98524.28
2019-03-23T22:38:50.807Z,98520.73
2019-03-23T22:41:56.970Z,98489.47
2019-03-23T22:45:02.956Z,98489.47
2019-03-23T22:48:08.311Z,98503.36
2019-03-23T22:51:14.770Z,98510.12
2019-03-23T22:54:19.354Z,98502.40
2019-03-23T22:57:24.892Z,98504.30
2019-03-23T23:00:34.298Z,98476.12
2019-03-23T23:03:40.308Z,98476.12
2019-03-23T23:06:46.118Z,98492.54
2019-03-23T23:09:51.014Z,98489.98
2019-03-23T23:12:56.534Z,98480.23
2019-03-23T23:16:01.660Z,98482.73
2019-03-23T23:19:06.760Z,98476.04
2019-03-23T23:22:10.830Z,98467.80
2019-03-23T23:25:16.285Z,98446.33
2019-03-23T23:28:21.655Z,98446.33
2019-03-23T23:31:27.544Z,98462.20
2019-03-23T23:34:31.843Z,98462.58
2019-03-23T23:37:37.396Z,98456.48
2019-03-23T23:40:42.520Z,98456.48
2019-03-23T23:43:47.765Z,98463.03
2019-03-23T23:46:51.883Z,98462.92
2019-03-23T23:49:56.734Z,98433.61
2019-03-23T23:53:00.723Z,98433.61
2019-03-23T23:56:05.353Z,98454.09
2019-03-23T23:59:11.504Z,98451.03
